Time;durP1;ratioP1;P1;durP2;ratioP2;P2;SDS_P1;SDS_P2;PMS_P1;PMS_P2;Temp;Humidity;BMP_temperature;BMP_pressure;BME280_temperature;BME280_humidity;BME280_pressure;Samples;Min_cycle;Max_cycle;Signal;HPM_P1;HPM_P2
2023/07/13 00:00:42;;;;;;;6.82;2.53;;;19.40;99.70;;;;;;5000239;28;20137;-78
2023/07/13 00:03:34;;;;;;;6.25;2.45;;;19.40;99.90;;;;;;5017010;28;20539;-78
2023/07/13 00:06:21;;;;;;;10.27;2.55;;;19.30;99.90;;;;;;4985794;28;20095;-77
2023/07/13 00:09:07;;;;;;;5.75;2.08;;;19.30;99.90;;;;;;5010873;28;20528;-77
2023/07/13 00:11:56;;;;;;;8.45;2.28;;;19.20;99.90;;;;;;4973585;28;20122;-78
2023/07/13 00:14:42;;;;;;;5.72;2.47;;;19.20;99.90;;;;;;4996741;28;20157;-78
2023/07/13 00:17:28;;;;;;;4.45;1.90;;;19.20;99.90;;;;;;5006587;28;20042;-79
2023/07/13 00:20:14;;;;;;;5.72;2.20;;;19.10;99.90;;;;;;4986502;28;20052;-78
2023/07/13 00:23:00;;;;;;;7.53;2.30;;;19.10;99.90;;;;;;5005411;28;20494;-78
2023/07/13 00:25:46;;;;;;;5.88;2.20;;;19.00;99.90;;;;;;5013640;28;20061;-78
2023/07/13 00:28:32;;;;;;;7.53;2.28;;;19.00;99.90;;;;;;5001382;28;20045;-78
2023/07/13 00:31:18;;;;;;;5.55;2.10;;;18.90;99.90;;;;;;5011443;28;20073;-78
2023/07/13 00:34:04;;;;;;;5.53;2.10;;;18.90;99.90;;;;;;5003114;28;20041;-77
2023/07/13 00:36:51;;;;;;;4.88;2.25;;;18.80;99.90;;;;;;4997413;28;20037;-77
2023/07/13 00:39:37;;;;;;;7.15;2.25;;;18.80;99.90;;;;;;4986721;28;20046;-78
2023/07/13 00:42:23;;;;;;;5.38;2.05;;;18.70;99.90;;;;;;5004592;28;20041;-78
2023/07/13 00:45:15;;;;;;;5.00;1.98;;;18.70;99.90;;;;;;5009839;28;20033;-78
2023/07/13 00:48:01;;;;;;;4.95;2.33;;;18.70;99.90;;;;;;5032997;28;20101;-77
2023/07/13 00:50:49;;;;;;;5.22;2.17;;;18.60;99.90;;;;;;5014111;28;20034;-77
2023/07/13 00:53:35;;;;;;;6.93;2.35;;;18.60;99.90;;;;;;5002073;28;20037;-78
2023/07/13 00:56:21;;;;;;;6.03;2.28;;;18.50;99.90;;;;;;4996190;28;20680;-77
2023/07/13 00:59:08;;;;;;;5.32;2.25;;;18.40;99.90;;;;;;4996461;28;20617;-77
2023/07/13 01:01:54;;;;;;;5.05;2.08;;;18.40;99.90;;;;;;4993687;28;20060;-77
2023/07/13 01:04:43;;;;;;;4.70;2.20;;;18.40;99.90;;;;;;4996622;28;20381;-77
2023/07/13 01:07:29;;;;;;;7.22;2.75;;;18.30;99.90;;;;;;5002056;28;20504;-77
2023/07/13 01:10:15;;;;;;;3.42;2.20;;;18.30;99.90;;;;;;5019537;28;20053;-77
2023/07/13 01:13:03;;;;;;;8.38;2.45;;;18.30;99.90;;;;;;4997403;28;20374;-77
2023/07/13 01:15:50;;;;;;;3.45;2.30;;;18.30;99.90;;;;;;5001969;28;20072;-77
2023/07/13 01:18:36;;;;;;;3.05;2.20;;;18.30;99.90;;;;;;4999721;28;20113;-77
2023/07/13 01:21:22;;;;;;;5.13;2.58;;;18.30;99.90;;;;;;4996167;28;20107;-77
2023/07/13 01:24:09;;;;;;;5.72;2.70;;;18.40;99.90;;;;;;5000386;28;20037;-78
2023/07/13 01:26:55;;;;;;;4.95;2.30;;;18.40;99.90;;;;;;4984888;28;20104;-77
2023/07/13 01:29:42;;;;;;;4.47;2.50;;;18.40;99.90;;;;;;5008828;28;20052;-78
2023/07/13 01:32:28;;;;;;;6.25;2.58;;;18.40;99.90;;;;;;5008930;28;20044;-78
2023/07/13 01:35:16;;;;;;;7.07;2.50;;;18.40;99.90;;;;;;5010966;28;20048;-78
2023/07/13 01:38:02;;;;;;;8.93;2.78;;;18.40;99.90;;;;;;4993674;28;20135;-78
2023/07/13 01:40:48;;;;;;;6.20;2.22;;;18.40;99.90;;;;;;5004235;28;20438;-77
2023/07/13 01:43:34;;;;;;;4.07;2.10;;;18.40;99.90;;;;;;4998169;28;20048;-77
2023/07/13 01:46:20;;;;;;;7.15;2.50;;;18.30;99.90;;;;;;5000177;28;20041;-77
2023/07/13 01:49:06;;;;;;;6.47;2.80;;;18.30;99.90;;;;;;4978959;28;20129;-77
2023/07/13 01:51:52;;;;;;;5.53;2.20;;;18.30;99.90;;;;;;5005843;28;20053;-78
2023/07/13 01:54:38;;;;;;;5.38;2.35;;;18.20;99.90;;;;;;5009445;28;20424;-77
2023/07/13 01:57:38;;;;;;;5.70;2.63;;;18.20;99.90;;;;;;5021674;28;20041;-75
2023/07/13 02:00:24;;;;;;;4.00;2.05;;;18.20;99.90;;;;;;5005791;28;20034;-74
2023/07/13 02:03:10;;;;;;;7.47;2.60;;;18.20;99.90;;;;;;4986036;28;20041;-74
2023/07/13 02:05:56;;;;;;;5.50;2.45;;;18.10;99.90;;;;;;4998686;28;20049;-74
2023/07/13 02:08:42;;;;;;;6.22;2.60;;;18.10;99.90;;;;;;5003065;28;20425;-74
2023/07/13 02:11:32;;;;;;;7.68;2.42;;;18.10;99.90;;;;;;4997644;28;20439;-74
2023/07/13 02:14:18;;;;;;;5.18;2.40;;;18.00;99.90;;;;;;5000344;28;20069;-74
2023/07/13 02:17:05;;;;;;;6.55;2.80;;;18.00;99.90;;;;;;5003747;28;20044;-75
2023/07/13 02:19:51;;;;;;;5.50;2.50;;;18.00;99.90;;;;;;5003061;28;20045;-74
2023/07/13 02:22:37;;;;;;;7.20;2.85;;;17.90;99.90;;;;;;5006665;28;20127;-75
2023/07/13 02:25:24;;;;;;;6.47;2.72;;;17.90;99.90;;;;;;5022034;28;20042;-74
2023/07/13 02:28:10;;;;;;;9.68;3.60;;;17.90;99.90;;;;;;5008137;28;20041;-75
2023/07/13 02:31:07;;;;;;;7.28;2.63;;;17.80;99.90;;;;;;5004198;28;20041;-74
2023/07/13 02:33:53;;;;;;;7.20;2.20;;;17.90;99.90;;;;;;5005260;28;20040;-78
2023/07/13 02:36:45;;;;;;;4.65;2.40;;;17.90;99.90;;;;;;5002573;28;20037;-78
2023/07/13 02:39:32;;;;;;;7.72;2.80;;;17.90;99.90;;;;;;5011030;28;20470;-78
2023/07/13 02:42:18;;;;;;;6.05;2.75;;;17.80;99.90;;;;;;4993938;28;20068;-78
2023/07/13 02:45:05;;;;;;;4.75;2.90;;;17.80;99.90;;;;;;5008331;28;20505;-78
2023/07/13 02:47:51;;;;;;;7.25;3.25;;;17.70;99.90;;;;;;4992629;28;20784;-78
2023/07/13 02:50:37;;;;;;;7.57;3.50;;;17.80;99.90;;;;;;4999754;28;20037;-78
2023/07/13 02:53:23;;;;;;;6.00;2.78;;;17.70;99.90;;;;;;5005288;28;20042;-78
2023/07/13 02:56:09;;;;;;;4.97;2.40;;;17.70;99.90;;;;;;5005490;28;20041;-78
2023/07/13 02:58:55;;;;;;;6.75;2.50;;;17.80;99.90;;;;;;5023249;28;20037;-78
2023/07/13 03:01:41;;;;;;;5.75;2.63;;;17.80;99.90;;;;;;5020772;28;20055;-77
2023/07/13 03:04:27;;;;;;;6.50;2.47;;;17.80;99.90;;;;;;5007404;28;20033;-78
2023/07/13 03:07:13;;;;;;;4.85;2.20;;;17.80;99.90;;;;;;4993043;28;20034;-77
2023/07/13 03:09:59;;;;;;;7.45;2.50;;;17.80;99.90;;;;;;5016461;28;20821;-78
2023/07/13 03:12:45;;;;;;;5.10;2.15;;;17.80;99.90;;;;;;5019755;28;20122;-77
2023/07/13 03:15:31;;;;;;;5.18;2.70;;;17.80;99.90;;;;;;5018232;28;20041;-78
2023/07/13 03:18:17;;;;;;;5.70;2.70;;;17.80;99.90;;;;;;5007635;28;20038;-78
2023/07/13 03:21:04;;;;;;;6.65;2.83;;;17.80;99.90;;;;;;5017270;28;20052;-78
2023/07/13 03:23:50;;;;;;;5.28;2.70;;;17.80;99.90;;;;;;5004268;28;20361;-78
2023/07/13 03:26:36;;;;;;;6.30;3.00;;;17.80;99.90;;;;;;5008916;28;20475;-78
2023/07/13 03:29:22;;;;;;;5.55;2.92;;;17.80;99.90;;;;;;5009559;28;20041;-78
2023/07/13 03:32:08;;;;;;;4.78;2.40;;;17.80;99.90;;;;;;5006646;28;20103;-78
2023/07/13 03:34:54;;;;;;;8.15;2.45;;;17.80;99.90;;;;;;5007768;28;20034;-77
2023/07/13 03:37:42;;;;;;;5.57;2.30;;;17.80;99.90;;;;;;4997406;28;20037;-78
2023/07/13 03:40:28;;;;;;;3.80;2.28;;;17.80;99.90;;;;;;5002650;28;20128;-78
2023/07/13 03:43:15;;;;;;;5.63;2.20;;;17.80;99.90;;;;;;4987230;28;20037;-77
2023/07/13 03:46:01;;;;;;;7.03;2.38;;;17.80;99.90;;;;;;5000102;28;20056;-78
2023/07/13 03:48:48;;;;;;;4.47;2.53;;;17.80;99.90;;;;;;5012744;28;20046;-78
2023/07/13 03:51:34;;;;;;;7.10;2.67;;;17.80;99.90;;;;;;4982242;28;20049;-78
2023/07/13 03:54:20;;;;;;;4.90;2.80;;;17.70;99.90;;;;;;5016166;28;20064;-78
2023/07/13 03:57:06;;;;;;;6.63;2.58;;;17.70;99.90;;;;;;5008797;28;20358;-78
2023/07/13 03:59:53;;;;;;;6.05;3.00;;;17.70;99.90;;;;;;5002292;28;20475;-78
2023/07/13 04:02:38;;;;;;;5.82;2.90;;;17.70;99.90;;;;;;4990197;28;20137;-78
2023/07/13 04:05:24;;;;;;;6.20;2.70;;;17.60;99.90;;;;;;4980664;28;20057;-78
2023/07/13 04:08:10;;;;;;;5.32;2.50;;;17.60;99.90;;;;;;4996354;28;20050;-78
2023/07/13 04:10:57;;;;;;;9.75;2.88;;;17.70;99.90;;;;;;4984690;28;20056;-78
2023/07/13 04:13:42;;;;;;;4.57;2.60;;;17.70;99.90;;;;;;4993279;28;20034;-78
2023/07/13 04:16:29;;;;;;;6.32;2.65;;;17.70;99.90;;;;;;5000497;28;20038;-78
2023/07/13 04:19:14;;;;;;;4.07;2.40;;;17.70;99.90;;;;;;4988539;28;20056;-78
2023/07/13 04:22:00;;;;;;;4.95;2.33;;;17.60;99.90;;;;;;5000262;28;20042;-78
2023/07/13 04:24:46;;;;;;;7.32;2.70;;;17.70;99.90;;;;;;5013027;28;20045;-78
2023/07/13 04:27:32;;;;;;;5.78;2.50;;;17.70;99.90;;;;;;5003872;28;20037;-78
2023/07/13 04:30:19;;;;;;;6.95;2.63;;;17.80;99.90;;;;;;5002943;28;20068;-78
2023/07/13 04:33:05;;;;;;;7.70;2.88;;;17.80;99.90;;;;;;4999628;28;20462;-78
2023/07/13 04:35:56;;;;;;;7.28;2.65;;;17.80;99.90;;;;;;4994569;28;20045;-78
2023/07/13 04:38:42;;;;;;;6.22;2.70;;;17.80;99.90;;;;;;4987913;28;20164;-78
2023/07/13 04:41:28;;;;;;;5.20;2.40;;;17.80;99.90;;;;;;4971302;28;20042;-78
2023/07/13 04:44:14;;;;;;;5.63;2.47;;;17.80;99.90;;;;;;4992493;28;20038;-78
2023/07/13 04:47:00;;;;;;;6.72;3.03;;;17.80;99.90;;;;;;4991687;28;20042;-78
2023/07/13 04:49:46;;;;;;;4.82;2.30;;;17.80;99.90;;;;;;4989329;28;20042;-77
2023/07/13 04:52:32;;;;;;;4.32;2.28;;;17.80;99.90;;;;;;4996874;28;20065;-78
2023/07/13 04:55:19;;;;;;;9.95;2.75;;;17.90;99.90;;;;;;4981561;28;20046;-77
2023/07/13 04:58:05;;;;;;;5.65;2.50;;;17.90;99.90;;;;;;5000159;28;20056;-78
2023/07/13 05:00:51;;;;;;;9.68;2.83;;;18.00;99.90;;;;;;5007364;28;20527;-78
2023/07/13 05:03:37;;;;;;;5.30;2.50;;;18.00;99.90;;;;;;4982533;28;20055;-78
2023/07/13 05:06:23;;;;;;;5.60;2.15;;;18.00;99.90;;;;;;5004503;28;20124;-78
2023/07/13 05:09:09;;;;;;;10.32;2.33;;;18.10;99.90;;;;;;5006540;28;20058;-78
2023/07/13 05:11:55;;;;;;;7.03;2.40;;;18.10;99.90;;;;;;4990051;28;20037;-79
2023/07/13 05:14:40;;;;;;;4.95;1.75;;;18.20;99.90;;;;;;5013437;28;20044;-78
2023/07/13 05:17:26;;;;;;;9.27;3.22;;;18.20;99.90;;;;;;4989730;28;20037;-78
2023/07/13 05:20:12;;;;;;;10.43;2.80;;;18.30;99.90;;;;;;4995663;28;20041;-78
2023/07/13 05:22:58;;;;;;;10.98;2.38;;;18.20;99.90;;;;;;5006785;28;20139;-78
2023/07/13 05:25:44;;;;;;;7.13;2.22;;;18.20;99.90;;;;;;5014826;28;20049;-77
2023/07/13 05:28:30;;;;;;;7.30;2.33;;;18.30;99.90;;;;;;5016247;28;20091;-78
2023/07/13 05:31:16;;;;;;;7.07;2.13;;;18.40;99.90;;;;;;5010093;28;20045;-78
2023/07/13 05:34:02;;;;;;;8.43;2.20;;;18.20;99.90;;;;;;5002550;28;20458;-78
2023/07/13 05:36:49;;;;;;;7.55;2.28;;;18.30;99.90;;;;;;4987396;28;20046;-78
2023/07/13 05:39:35;;;;;;;6.40;2.63;;;18.40;99.90;;;;;;5009391;28;20042;-77
2023/07/13 05:42:21;;;;;;;5.72;2.13;;;18.30;99.90;;;;;;5000440;28;20429;-78
2023/07/13 05:45:07;;;;;;;7.80;2.60;;;18.40;99.90;;;;;;5002784;28;20037;-78
2023/07/13 05:47:53;;;;;;;11.05;2.58;;;18.30;99.90;;;;;;5015733;28;20037;-78
2023/07/13 05:50:39;;;;;;;7.97;2.25;;;18.40;99.90;;;;;;5007444;28;20053;-78
2023/07/13 05:53:25;;;;;;;6.82;2.20;;;18.40;99.90;;;;;;5007068;28;20087;-78
2023/07/13 05:56:12;;;;;;;10.18;2.45;;;18.50;99.90;;;;;;5012852;28;20038;-78
2023/07/13 05:58:58;;;;;;;9.43;2.00;;;18.50;99.90;;;;;;5007664;28;20069;-78
2023/07/13 06:01:44;;;;;;;6.70;2.38;;;18.50;99.90;;;;;;5018547;28;20163;-78
2023/07/13 06:04:30;;;;;;;8.70;2.13;;;18.50;99.90;;;;;;5009094;28;20049;-78
2023/07/13 06:07:16;;;;;;;9.50;2.67;;;18.60;99.90;;;;;;5013046;28;20044;-78
2023/07/13 06:10:02;;;;;;;9.30;2.55;;;18.60;99.90;;;;;;5009045;28;20054;-77
2023/07/13 06:12:48;;;;;;;8.77;2.10;;;18.60;99.90;;;;;;4992134;28;20376;-78
2023/07/13 06:15:34;;;;;;;8.75;2.58;;;18.70;99.90;;;;;;4987399;28;20034;-78
2023/07/13 06:18:20;;;;;;;10.77;2.42;;;18.60;99.80;;;;;;5000997;28;20045;-77
2023/07/13 06:21:10;;;;;;;8.60;2.28;;;18.60;99.90;;;;;;4978321;28;20045;-78
2023/07/13 06:23:56;;;;;;;9.43;2.42;;;18.60;99.90;;;;;;5001418;28;20048;-77
2023/07/13 06:26:42;;;;;;;9.90;2.40;;;18.50;99.90;;;;;;4988171;28;20437;-78
2023/07/13 06:29:28;;;;;;;11.13;1.98;;;18.60;99.90;;;;;;4988233;28;20565;-78
2023/07/13 06:32:14;;;;;;;6.53;2.00;;;18.50;99.90;;;;;;5007042;28;20037;-77
2023/07/13 06:35:00;;;;;;;8.75;1.98;;;18.50;99.90;;;;;;4996716;28;20124;-78
2023/07/13 06:37:47;;;;;;;11.13;2.58;;;18.50;99.90;;;;;;4991199;28;20042;-78
2023/07/13 06:40:33;;;;;;;8.68;2.50;;;18.60;99.90;;;;;;4991679;28;20084;-77
2023/07/13 06:43:20;;;;;;;9.90;3.00;;;18.60;99.90;;;;;;4984335;28;20109;-78
2023/07/13 06:46:06;;;;;;;8.98;2.10;;;18.60;99.90;;;;;;5008704;28;20037;-78
2023/07/13 06:48:52;;;;;;;10.43;2.53;;;18.70;99.90;;;;;;5021040;28;20045;-77
2023/07/13 06:51:38;;;;;;;6.03;2.25;;;18.70;99.90;;;;;;5013088;28;20731;-78
2023/07/13 06:54:24;;;;;;;7.75;1.80;;;18.70;99.90;;;;;;5012043;28;20030;-78
2023/07/13 06:57:11;;;;;;;5.70;2.13;;;18.80;99.90;;;;;;5008939;28;20037;-78
2023/07/13 06:59:57;;;;;;;10.05;2.50;;;18.90;99.90;;;;;;4988803;28;20694;-78
2023/07/13 07:02:43;;;;;;;7.55;2.28;;;18.90;99.90;;;;;;5004480;28;20054;-78
2023/07/13 07:05:29;;;;;;;10.40;2.67;;;18.90;99.90;;;;;;4999829;28;20490;-78
2023/07/13 07:08:15;;;;;;;9.75;2.70;;;18.90;99.90;;;;;;4995037;28;20057;-78
2023/07/13 07:11:01;;;;;;;9.35;3.08;;;18.90;99.90;;;;;;4998212;28;20398;-78
2023/07/13 07:13:47;;;;;;;9.45;2.92;;;18.90;99.90;;;;;;4976171;28;20038;-78
2023/07/13 07:16:33;;;;;;;9.82;2.58;;;18.90;99.90;;;;;;4984476;28;20033;-77
2023/07/13 07:19:19;;;;;;;6.32;2.92;;;19.00;99.90;;;;;;5000914;28;20041;-77
2023/07/13 07:22:05;;;;;;;8.40;3.15;;;18.90;99.70;;;;;;5005081;28;20073;-77
2023/07/13 07:24:51;;;;;;;9.57;2.72;;;18.90;99.90;;;;;;5001655;28;20068;-78
2023/07/13 07:27:38;;;;;;;10.48;2.50;;;18.90;99.90;;;;;;5024632;28;20045;-77
2023/07/13 07:30:26;;;;;;;9.63;3.03;;;18.90;99.90;;;;;;5019523;28;20490;-78
2023/07/13 07:33:14;;;;;;;8.77;2.85;;;18.90;99.60;;;;;;5002575;28;20143;-74
2023/07/13 07:36:00;;;;;;;7.10;3.15;;;18.90;99.60;;;;;;4981767;28;20153;-76
2023/07/13 07:38:46;;;;;;;10.30;3.70;;;18.90;99.30;;;;;;5014524;28;20037;-78
2023/07/13 07:41:32;;;;;;;11.23;2.95;;;18.90;98.90;;;;;;5006259;28;20052;-78
2023/07/13 07:44:18;;;;;;;9.85;3.00;;;18.90;99.10;;;;;;5003613;28;20053;-77
2023/07/13 07:47:04;;;;;;;9.98;3.10;;;19.00;99.30;;;;;;5016476;28;20045;-78
2023/07/13 07:49:50;;;;;;;6.30;2.60;;;19.30;99.40;;;;;;4997919;28;20570;-78
2023/07/13 07:52:36;;;;;;;12.02;2.45;;;19.30;98.80;;;;;;4999206;28;20653;-78
2023/07/13 07:55:23;;;;;;;12.45;2.90;;;19.50;98.80;;;;;;4995872;28;20125;-74
2023/07/13 07:58:09;;;;;;;8.20;2.15;;;19.60;98.90;;;;;;4984172;28;20038;-73
2023/07/13 08:01:02;;;;;;;8.85;2.35;;;19.70;98.20;;;;;;4978417;28;20050;-74
2023/07/13 08:03:48;;;;;;;8.45;2.50;;;19.70;97.90;;;;;;4985963;28;20065;-74
2023/07/13 08:06:34;;;;;;;8.43;1.70;;;19.80;97.30;;;;;;4990144;28;20797;-74
2023/07/13 08:09:20;;;;;;;5.93;1.60;;;19.80;97.30;;;;;;5003866;28;20053;-74
2023/07/13 08:12:08;;;;;;;5.80;2.03;;;19.80;96.80;;;;;;4997257;28;20068;-78
2023/07/13 08:14:54;;;;;;;7.22;1.67;;;19.70;96.70;;;;;;4987610;28;20502;-78
2023/07/13 08:17:40;;;;;;;5.88;1.80;;;19.50;96.20;;;;;;5004306;28;20636;-78
2023/07/13 08:20:26;;;;;;;4.78;1.45;;;19.70;97.10;;;;;;5010419;28;20041;-78
2023/07/13 08:23:12;;;;;;;7.82;1.70;;;19.80;96.00;;;;;;5006566;28;20494;-77
2023/07/13 08:25:58;;;;;;;10.13;2.17;;;19.70;95.70;;;;;;4996898;28;20614;-78
2023/07/13 08:28:44;;;;;;;5.45;1.58;;;19.50;95.80;;;;;;5000926;28;20080;-78
2023/07/13 08:31:30;;;;;;;6.85;1.70;;;19.60;95.70;;;;;;5001420;28;20087;-77
2023/07/13 08:34:16;;;;;;;5.55;1.50;;;19.40;95.60;;;;;;4982768;28;20052;-78
2023/07/13 08:37:02;;;;;;;7.47;1.40;;;19.50;95.60;;;;;;5007993;28;20073;-77
2023/07/13 08:39:49;;;;;;;6.85;1.48;;;19.50;95.50;;;;;;5007438;28;20037;-78
2023/07/13 08:42:49;;;;;;;4.63;1.15;;;19.60;95.90;;;;;;4986178;28;20053;-77
2023/07/13 08:45:43;;;;;;;7.85;1.42;;;19.60;94.90;;;;;;4986545;28;20069;-77
2023/07/13 08:48:54;;;;;;;5.45;1.42;;;19.50;94.70;;;;;;5016239;28;20049;-77
2023/07/13 08:52:09;;;;;;;6.57;1.40;;;19.50;95.00;;;;;;4999715;28;20069;-78
2023/07/13 08:54:55;;;;;;;5.10;1.30;;;19.40;95.00;;;;;;5022358;28;20049;-78
2023/07/13 08:57:42;;;;;;;4.43;1.52;;;19.60;95.40;;;;;;5004167;28;20046;-78
2023/07/13 09:00:52;;;;;;;7.75;1.90;;;19.80;95.00;;;;;;5005757;28;20478;-78
2023/07/13 09:03:55;;;;;;;6.22;1.40;;;19.90;95.40;;;;;;4989029;28;20057;-78
2023/07/13 09:06:53;;;;;;;4.50;1.23;;;19.80;94.70;;;;;;4995173;28;20038;-74
2023/07/13 09:09:54;;;;;;;5.80;1.50;;;19.70;95.10;;;;;;5021588;28;20104;-74
2023/07/13 09:12:56;;;;;;;4.90;1.67;;;19.70;95.50;;;;;;5013104;28;20048;-74
2023/07/13 09:15:44;;;;;;;6.90;1.92;;;19.90;95.90;;;;;;5011038;28;20037;-74
2023/07/13 09:18:37;;;;;;;6.97;1.80;;;20.00;95.30;;;;;;4999432;28;20044;-74
2023/07/13 09:21:32;;;;;;;5.07;1.65;;;20.10;95.00;;;;;;5002605;28;20076;-74
2023/07/13 09:24:45;;;;;;;7.05;1.65;;;20.30;95.40;;;;;;4989861;28;20044;-74
2023/07/13 09:27:39;;;;;;;8.52;2.08;;;20.30;95.10;;;;;;5014457;28;20041;-74
2023/07/13 09:30:36;;;;;;;5.93;1.58;;;20.20;94.60;;;;;;4993667;28;20048;-74
2023/07/13 09:33:22;;;;;;;7.72;1.83;;;20.10;95.30;;;;;;4999650;28;20181;-74
2023/07/13 09:36:24;;;;;;;3.55;1.40;;;20.10;95.30;;;;;;5003840;28;20041;-74
2023/07/13 09:39:41;;;;;;;6.35;1.80;;;19.80;95.00;;;;;;4982550;28;20044;-74
2023/07/13 09:42:28;;;;;;;8.73;1.80;;;20.10;95.50;;;;;;5007784;28;20080;-74
2023/07/13 09:45:16;;;;;;;8.27;1.70;;;20.20;95.30;;;;;;4992745;28;20030;-74
2023/07/13 09:48:11;;;;;;;7.47;1.60;;;20.20;94.60;;;;;;4983218;28;20106;-74
2023/07/13 09:50:57;;;;;;;6.63;2.20;;;20.20;94.50;;;;;;4973073;28;20052;-74
2023/07/13 09:53:44;;;;;;;5.75;1.83;;;20.10;94.70;;;;;;4995614;28;20056;-74
2023/07/13 09:56:30;;;;;;;6.38;1.35;;;20.40;95.00;;;;;;4995534;28;20597;-74
2023/07/13 09:59:20;;;;;;;4.50;1.55;;;20.60;94.70;;;;;;5004375;28;20073;-78
2023/07/13 10:02:29;;;;;;;5.90;1.88;;;20.70;94.50;;;;;;5012139;28;20116;-78
2023/07/13 10:05:16;;;;;;;7.13;2.10;;;20.80;94.60;;;;;;5009079;28;20046;-78
2023/07/13 10:08:02;;;;;;;9.00;2.33;;;21.00;93.90;;;;;;4999367;28;20034;-78
2023/07/13 10:10:58;;;;;;;7.95;1.40;;;21.00;94.20;;;;;;4991010;28;20053;-78
2023/07/13 10:13:57;;;;;;;6.00;1.58;;;21.00;93.70;;;;;;4990193;28;20481;-78
2023/07/13 10:16:45;;;;;;;5.00;1.40;;;21.10;93.60;;;;;;5002023;28;20040;-78
2023/07/13 10:19:32;;;;;;;3.85;1.30;;;21.00;93.50;;;;;;4985044;28;20042;-77
2023/07/13 10:22:46;;;;;;;6.53;1.60;;;21.40;93.40;;;;;;5006954;28;20046;-77
2023/07/13 10:25:34;;;;;;;6.07;1.52;;;21.40;93.60;;;;;;4988095;28;20064;-74
2023/07/13 10:28:36;;;;;;;7.47;1.80;;;21.50;93.50;;;;;;4977896;28;20042;-74
2023/07/13 10:31:22;;;;;;;8.07;1.75;;;21.40;93.60;;;;;;4975606;28;20050;-75
2023/07/13 10:34:10;;;;;;;4.47;1.60;;;21.10;93.50;;;;;;5002514;28;20038;-74
2023/07/13 10:36:57;;;;;;;5.72;1.40;;;21.20;93.40;;;;;;5003947;28;20046;-74
2023/07/13 10:39:43;;;;;;;4.07;1.70;;;21.40;94.10;;;;;;4993950;28;20551;-75
2023/07/13 10:42:41;;;;;;;7.10;1.80;;;21.50;93.40;;;;;;4997325;28;20034;-75
2023/07/13 10:45:33;;;;;;;4.05;1.98;;;21.30;93.90;;;;;;4979205;28;20039;-74
2023/07/13 10:48:20;;;;;;;3.45;1.65;;;21.40;93.30;;;;;;5004091;28;20524;-75
2023/07/13 10:51:06;;;;;;;5.43;1.45;;;21.50;93.00;;;;;;4992496;28;20042;-74
2023/07/13 10:54:16;;;;;;;10.77;2.00;;;21.70;92.60;;;;;;5007011;28;20116;-74
2023/07/13 10:57:16;;;;;;;6.40;1.70;;;21.80;92.50;;;;;;5002529;28;20045;-75
2023/07/13 11:00:03;;;;;;;7.72;1.70;;;21.70;92.70;;;;;;4982526;28;20062;-75
2023/07/13 11:03:00;;;;;;;5.68;1.67;;;21.80;92.40;;;;;;5006937;28;20064;-73
2023/07/13 11:05:50;;;;;;;7.50;1.83;;;21.70;92.80;;;;;;4987366;28;20397;-73
2023/07/13 11:08:38;;;;;;;5.80;1.67;;;21.70;92.70;;;;;;4983645;28;20059;-74
2023/07/13 11:11:27;;;;;;;6.63;2.17;;;21.50;92.80;;;;;;4976647;28;20092;-76
2023/07/13 11:14:28;;;;;;;5.38;1.70;;;21.60;93.10;;;;;;5012503;28;20037;-75
2023/07/13 11:17:34;;;;;;;6.30;1.80;;;21.70;92.40;;;;;;4990649;28;20038;-74
2023/07/13 11:20:23;;;;;;;5.93;1.75;;;21.90;92.00;;;;;;5018289;28;20045;-78
2023/07/13 11:23:12;;;;;;;4.97;1.38;;;21.70;92.30;;;;;;5010353;28;20040;-77
2023/07/13 11:25:59;;;;;;;5.80;1.88;;;21.70;92.30;;;;;;5014119;28;20047;-78
2023/07/13 11:28:45;;;;;;;6.53;1.87;;;21.60;92.20;;;;;;4980763;28;20046;-78
2023/07/13 11:31:32;;;;;;;3.90;1.70;;;22.00;92.10;;;;;;5016694;28;20049;-78
2023/07/13 11:34:24;;;;;;;6.78;1.77;;;22.30;92.20;;;;;;5011312;28;20148;-78
2023/07/13 11:37:14;;;;;;;5.70;1.63;;;22.30;90.90;;;;;;5002126;28;20524;-77
2023/07/13 11:40:00;;;;;;;6.05;1.80;;;22.30;91.30;;;;;;5013590;28;20045;-74
2023/07/13 11:42:46;;;;;;;10.85;1.80;;;22.60;91.10;;;;;;4988153;28;20125;-77
2023/07/13 11:45:32;;;;;;;8.45;1.58;;;22.20;90.50;;;;;;5005296;28;20494;-77
2023/07/13 11:48:29;;;;;;;6.68;1.60;;;21.90;90.60;;;;;;5000432;28;20046;-79
2023/07/13 11:51:22;;;;;;;11.63;2.08;;;21.80;90.90;;;;;;4990820;28;20038;-78
2023/07/13 11:54:29;;;;;;;3.83;1.50;;;22.10;91.20;;;;;;4996730;28;20117;-78
2023/07/13 11:57:27;;;;;;;5.05;1.40;;;22.30;90.90;;;;;;5006904;28;20049;-78
2023/07/13 12:00:16;;;;;;;4.68;1.73;;;22.20;90.70;;;;;;5006586;28;20060;-78
2023/07/13 12:03:02;;;;;;;6.25;2.17;;;22.40;90.20;;;;;;5001647;28;20056;-78
2023/07/13 12:06:02;;;;;;;7.28;1.63;;;22.70;89.50;;;;;;4984646;28;20109;-79
2023/07/13 12:08:48;;;;;;;10.02;1.55;;;23.00;88.20;;;;;;5001729;28;20107;-79
2023/07/13 12:11:37;;;;;;;5.43;1.42;;;23.20;86.70;;;;;;4989393;28;20716;-78
2023/07/13 12:14:24;;;;;;;4.75;1.58;;;22.90;86.80;;;;;;5006795;28;20103;-77
2023/07/13 12:17:19;;;;;;;3.95;1.30;;;22.80;83.50;;;;;;4991238;28;20038;-78
2023/07/13 12:20:23;;;;;;;3.75;1.35;;;22.80;84.20;;;;;;5005873;28;20827;-77
2023/07/13 12:23:30;;;;;;;5.63;1.70;;;23.10;84.70;;;;;;5008205;28;20057;-79
2023/07/13 12:26:17;;;;;;;7.70;1.77;;;23.20;83.90;;;;;;5000944;28;20132;-77
2023/07/13 12:29:05;;;;;;;4.28;1.60;;;23.20;85.10;;;;;;4995058;28;20038;-79
2023/07/13 12:31:52;;;;;;;4.32;1.38;;;23.60;83.90;;;;;;4986275;28;20042;-77
2023/07/13 12:34:54;;;;;;;4.30;1.55;;;23.30;84.00;;;;;;4977906;28;20041;-77
2023/07/13 12:37:51;;;;;;;3.13;1.30;;;23.10;85.30;;;;;;5005514;28;20042;-80
2023/07/13 12:40:37;;;;;;;4.05;1.50;;;23.30;82.70;;;;;;5007025;28;20045;-79
2023/07/13 12:43:24;;;;;;;6.40;1.77;;;23.20;84.00;;;;;;5001148;28;20099;-78
2023/07/13 12:46:20;;;;;;;5.38;1.80;;;22.90;83.40;;;;;;4970660;28;20092;-80
2023/07/13 12:49:07;;;;;;;4.15;1.38;;;22.90;84.60;;;;;;5010216;28;20121;-79
2023/07/13 12:51:59;;;;;;;5.05;1.58;;;23.40;83.70;;;;;;5013728;28;20042;-79
2023/07/13 12:54:59;;;;;;;5.15;1.80;;;23.50;83.80;;;;;;5012161;28;20040;-81
2023/07/13 12:57:56;;;;;;;6.97;1.65;;;23.60;83.90;;;;;;4981150;28;20045;-79
2023/07/13 13:00:49;;;;;;;5.68;1.90;;;23.70;82.70;;;;;;4999080;28;20075;-79
2023/07/13 13:03:41;;;;;;;4.28;1.30;;;23.70;81.20;;;;;;5000174;28;20053;-77
2023/07/13 13:06:28;;;;;;;6.90;1.90;;;23.70;81.50;;;;;;4985931;28;20478;-81
2023/07/13 13:09:15;;;;;;;7.03;2.50;;;23.70;80.90;;;;;;4977330;28;20932;-81
2023/07/13 13:12:02;;;;;;;4.07;1.40;;;23.80;81.00;;;;;;5010682;28;20129;-79
2023/07/13 13:14:49;;;;;;;2.97;1.40;;;23.70;81.20;;;;;;4988828;28;20046;-77
2023/07/13 13:17:35;;;;;;;7.38;2.20;;;23.60;80.20;;;;;;4988771;28;20046;-77
2023/07/13 13:20:22;;;;;;;4.20;2.00;;;23.30;81.60;;;;;;4987548;28;20041;-80
2023/07/13 13:23:17;;;;;;;7.57;1.95;;;23.40;82.00;;;;;;4991357;28;20041;-83
2023/07/13 13:26:03;;;;;;;2.72;1.63;;;23.60;83.10;;;;;;4998843;28;20042;-76
2023/07/13 13:28:49;;;;;;;4.07;1.65;;;23.70;82.10;;;;;;4975311;28;20046;-76
2023/07/13 13:31:35;;;;;;;6.20;1.50;;;23.90;82.50;;;;;;4998885;28;20108;-79
2023/07/13 13:34:24;;;;;;;4.78;1.60;;;23.90;79.80;;;;;;5010166;28;20048;-79
2023/07/13 13:37:19;;;;;;;3.90;1.75;;;23.80;81.10;;;;;;4992970;28;20511;-81
2023/07/13 13:40:18;;;;;;;4.95;1.90;;;23.50;81.60;;;;;;4999691;28;20371;-75
2023/07/13 13:43:16;;;;;;;8.05;1.88;;;23.30;81.70;;;;;;5000748;28;20037;-80
2023/07/13 13:46:02;;;;;;;4.60;1.73;;;23.50;83.90;;;;;;4996157;28;20471;-80
2023/07/13 13:48:49;;;;;;;10.23;1.55;;;23.70;82.90;;;;;;4993386;28;20052;-76
2023/07/13 13:51:35;;;;;;;4.15;1.70;;;24.20;81.40;;;;;;5000161;28;20132;-76
2023/07/13 13:54:21;;;;;;;4.70;1.65;;;24.00;80.90;;;;;;4993535;28;20117;-76
2023/07/13 13:57:08;;;;;;;4.30;1.85;;;24.20;81.20;;;;;;5014127;28;20171;-76
2023/07/13 13:59:55;;;;;;;6.80;1.70;;;24.30;81.00;;;;;;5001399;28;20046;-76
2023/07/13 14:02:41;;;;;;;4.93;1.58;;;24.20;79.80;;;;;;4990766;28;20069;-76
2023/07/13 14:05:28;;;;;;;5.85;1.75;;;23.90;80.40;;;;;;5012201;28;20081;-76
2023/07/13 14:08:16;;;;;;;4.67;1.63;;;23.80;81.30;;;;;;4995597;28;20065;-76
2023/07/13 14:11:02;;;;;;;4.72;2.03;;;23.50;80.50;;;;;;5002541;28;20050;-77
2023/07/13 14:13:50;;;;;;;3.50;1.42;;;23.30;81.60;;;;;;4996747;28;20324;-81
2023/07/13 14:16:37;;;;;;;4.68;1.63;;;23.30;82.00;;;;;;4996313;28;20103;-77
2023/07/13 14:19:24;;;;;;;3.08;1.55;;;23.00;82.40;;;;;;5007373;28;20047;-76
2023/07/13 14:22:10;;;;;;;5.43;1.80;;;22.70;82.00;;;;;;4997324;28;20176;-75
2023/07/13 14:24:58;;;;;;;6.68;2.00;;;22.70;83.20;;;;;;5002155;28;20386;-73
2023/07/13 14:27:44;;;;;;;;;;;22.50;84.90;;;;;;5007411;28;20498;-74
2023/07/13 14:30:30;;;;;;;8.20;1.63;;;21.60;92.20;;;;;;5009120;28;19987;-77
2023/07/13 14:33:17;;;;;;;6.03;1.67;;;21.30;94.90;;;;;;5003243;28;20040;-77
2023/07/13 14:36:05;;;;;;;6.63;2.10;;;20.90;95.60;;;;;;4988991;28;20132;-74